sensor_id;sensor_type;location;lat;lon;timestamp;P1;durP1;ratioP1;P2;durP2;ratioP2
33987;SDS011;37428;53.580;-1.666;2022-11-15T00:01:13;5.53;;;3.47;;
33987;SDS011;37428;53.580;-1.666;2022-11-15T00:04:20;3.83;;;2.22;;
33987;SDS011;37428;53.580;-1.666;2022-11-15T00:07:38;4.10;;;1.70;;
33987;SDS011;37428;53.580;-1.666;2022-11-15T00:10:53;4.38;;;1.55;;
33987;SDS011;37428;53.580;-1.666;2022-11-15T00:14:26;4.10;;;1.52;;
33987;SDS011;37428;53.580;-1.666;2022-11-15T00:17:30;6.05;;;1.67;;
33987;SDS011;37428;53.580;-1.666;2022-11-15T00:20:35;5.68;;;1.98;;
33987;SDS011;37428;53.580;-1.666;2022-11-15T00:23:39;2.95;;;2.17;;
33987;SDS011;37428;53.580;-1.666;2022-11-15T00:26:44;3.70;;;1.83;;
33987;SDS011;37428;53.580;-1.666;2022-11-15T00:29:52;6.05;;;2.70;;
33987;SDS011;37428;53.580;-1.666;2022-11-15T00:33:06;4.75;;;1.88;;
33987;SDS011;37428;53.580;-1.666;2022-11-15T00:36:12;3.05;;;1.50;;
33987;SDS011;37428;53.580;-1.666;2022-11-15T00:39:16;4.03;;;1.20;;
33987;SDS011;37428;53.580;-1.666;2022-11-15T00:42:19;5.15;;;1.10;;
33987;SDS011;37428;53.580;-1.666;2022-11-15T00:45:23;6.78;;;1.25;;
33987;SDS011;37428;53.580;-1.666;2022-11-15T00:48:27;5.85;;;1.65;;
33987;SDS011;37428;53.580;-1.666;2022-11-15T00:51:32;6.22;;;2.50;;
33987;SDS011;37428;53.580;-1.666;2022-11-15T00:54:36;18.35;;;13.98;;
33987;SDS011;37428;53.580;-1.666;2022-11-15T00:57:40;13.07;;;7.55;;
33987;SDS011;37428;53.580;-1.666;2022-11-15T01:00:45;5.13;;;2.22;;
33987;SDS011;37428;53.580;-1.666;2022-11-15T01:03:49;6.05;;;3.92;;
33987;SDS011;37428;53.580;-1.666;2022-11-15T01:07:00;17.40;;;10.15;;
33987;SDS011;37428;53.580;-1.666;2022-11-15T01:10:07;13.43;;;5.80;;
33987;SDS011;37428;53.580;-1.666;2022-11-15T01:13:11;8.05;;;2.55;;
33987;SDS011;37428;53.580;-1.666;2022-11-15T01:16:15;5.35;;;1.67;;
33987;SDS011;37428;53.580;-1.666;2022-11-15T01:19:33;7.15;;;1.60;;
33987;SDS011;37428;53.580;-1.666;2022-11-15T01:22:38;8.65;;;1.90;;
33987;SDS011;37428;53.580;-1.666;2022-11-15T01:25:44;8.48;;;2.50;;
33987;SDS011;37428;53.580;-1.666;2022-11-15T01:28:46;6.50;;;3.00;;
33987;SDS011;37428;53.580;-1.666;2022-11-15T01:31:48;9.73;;;3.97;;
33987;SDS011;37428;53.580;-1.666;2022-11-15T01:34:50;10.02;;;2.63;;
33987;SDS011;37428;53.580;-1.666;2022-11-15T01:37:54;9.68;;;2.20;;
33987;SDS011;37428;53.580;-1.666;2022-11-15T01:40:57;6.32;;;4.03;;
33987;SDS011;37428;53.580;-1.666;2022-11-15T01:47:48;6.60;;;2.67;;
33987;SDS011;37428;53.580;-1.666;2022-11-15T01:50:53;11.10;;;2.35;;
33987;SDS011;37428;53.580;-1.666;2022-11-15T01:53:58;6.82;;;2.08;;
33987;SDS011;37428;53.580;-1.666;2022-11-15T01:57:06;7.07;;;1.52;;
33987;SDS011;37428;53.580;-1.666;2022-11-15T02:00:11;5.88;;;1.55;;
33987;SDS011;37428;53.580;-1.666;2022-11-15T02:03:14;9.18;;;1.50;;
33987;SDS011;37428;53.580;-1.666;2022-11-15T02:06:16;7.50;;;1.27;;
33987;SDS011;37428;53.580;-1.666;2022-11-15T02:09:21;6.95;;;1.83;;
33987;SDS011;37428;53.580;-1.666;2022-11-15T02:12:28;7.57;;;1.95;;
33987;SDS011;37428;53.580;-1.666;2022-11-15T02:15:40;9.68;;;3.03;;
33987;SDS011;37428;53.580;-1.666;2022-11-15T02:18:52;6.85;;;1.45;;
33987;SDS011;37428;53.580;-1.666;2022-11-15T02:22:03;8.32;;;1.60;;
33987;SDS011;37428;53.580;-1.666;2022-11-15T02:25:31;5.40;;;1.50;;
33987;SDS011;37428;53.580;-1.666;2022-11-15T02:28:48;7.20;;;1.20;;
33987;SDS011;37428;53.580;-1.666;2022-11-15T02:32:04;9.27;;;2.25;;
33987;SDS011;37428;53.580;-1.666;2022-11-15T02:35:15;11.63;;;1.60;;
33987;SDS011;37428;53.580;-1.666;2022-11-15T02:38:40;8.95;;;2.42;;
33987;SDS011;37428;53.580;-1.666;2022-11-15T02:41:54;5.55;;;1.30;;
33987;SDS011;37428;53.580;-1.666;2022-11-15T02:45:28;7.38;;;1.23;;
33987;SDS011;37428;53.580;-1.666;2022-11-15T02:51:59;7.25;;;1.23;;
33987;SDS011;37428;53.580;-1.666;2022-11-15T02:58:47;9.93;;;2.45;;
33987;SDS011;37428;53.580;-1.666;2022-11-15T03:02:04;6.88;;;2.80;;
33987;SDS011;37428;53.580;-1.666;2022-11-15T03:05:23;16.85;;;1.58;;
33987;SDS011;37428;53.580;-1.666;2022-11-15T03:08:40;12.27;;;1.30;;
33987;SDS011;37428;53.580;-1.666;2022-11-15T03:11:53;17.27;;;1.63;;
33987;SDS011;37428;53.580;-1.666;2022-11-15T03:15:00;13.32;;;1.58;;
33987;SDS011;37428;53.580;-1.666;2022-11-15T03:18:07;6.70;;;1.40;;
33987;SDS011;37428;53.580;-1.666;2022-11-15T03:21:21;6.00;;;1.45;;
33987;SDS011;37428;53.580;-1.666;2022-11-15T03:24:24;8.10;;;1.50;;
33987;SDS011;37428;53.580;-1.666;2022-11-15T03:27:43;9.07;;;1.42;;
33987;SDS011;37428;53.580;-1.666;2022-11-15T03:30:52;11.07;;;1.42;;
33987;SDS011;37428;53.580;-1.666;2022-11-15T03:33:57;13.43;;;1.63;;
33987;SDS011;37428;53.580;-1.666;2022-11-15T03:37:13;8.50;;;1.52;;
33987;SDS011;37428;53.580;-1.666;2022-11-15T03:40:34;7.95;;;1.83;;
33987;SDS011;37428;53.580;-1.666;2022-11-15T03:43:43;9.35;;;1.98;;
33987;SDS011;37428;53.580;-1.666;2022-11-15T03:47:11;8.02;;;2.22;;
33987;SDS011;37428;53.580;-1.666;2022-11-15T03:50:22;11.43;;;2.00;;
33987;SDS011;37428;53.580;-1.666;2022-11-15T03:53:30;8.18;;;1.92;;
33987;SDS011;37428;53.580;-1.666;2022-11-15T03:56:33;15.85;;;1.95;;
33987;SDS011;37428;53.580;-1.666;2022-11-15T03:59:35;12.93;;;1.90;;
33987;SDS011;37428;53.580;-1.666;2022-11-15T04:02:38;9.90;;;2.30;;
33987;SDS011;37428;53.580;-1.666;2022-11-15T04:05:40;5.93;;;1.65;;
33987;SDS011;37428;53.580;-1.666;2022-11-15T04:08:45;5.80;;;2.00;;
33987;SDS011;37428;53.580;-1.666;2022-11-15T04:11:51;6.18;;;1.65;;
33987;SDS011;37428;53.580;-1.666;2022-11-15T04:14:54;6.00;;;1.83;;
33987;SDS011;37428;53.580;-1.666;2022-11-15T04:18:09;7.13;;;2.22;;
33987;SDS011;37428;53.580;-1.666;2022-11-15T04:21:11;10.73;;;2.35;;
33987;SDS011;37428;53.580;-1.666;2022-11-15T04:24:33;11.60;;;1.65;;
33987;SDS011;37428;53.580;-1.666;2022-11-15T04:27:35;5.45;;;1.40;;
33987;SDS011;37428;53.580;-1.666;2022-11-15T04:30:41;9.43;;;1.58;;
33987;SDS011;37428;53.580;-1.666;2022-11-15T04:33:57;6.20;;;2.00;;
33987;SDS011;37428;53.580;-1.666;2022-11-15T04:37:01;7.97;;;2.50;;
33987;SDS011;37428;53.580;-1.666;2022-11-15T04:40:17;23.30;;;5.13;;
33987;SDS011;37428;53.580;-1.666;2022-11-15T04:43:22;8.48;;;1.90;;
33987;SDS011;37428;53.580;-1.666;2022-11-15T04:46:31;12.77;;;2.40;;
33987;SDS011;37428;53.580;-1.666;2022-11-15T04:49:33;10.52;;;2.42;;
33987;SDS011;37428;53.580;-1.666;2022-11-15T04:52:36;8.43;;;1.90;;
33987;SDS011;37428;53.580;-1.666;2022-11-15T04:55:41;8.93;;;2.78;;
33987;SDS011;37428;53.580;-1.666;2022-11-15T04:58:48;13.55;;;2.10;;
33987;SDS011;37428;53.580;-1.666;2022-11-15T05:01:56;7.50;;;2.05;;
33987;SDS011;37428;53.580;-1.666;2022-11-15T05:05:02;10.60;;;1.52;;
33987;SDS011;37428;53.580;-1.666;2022-11-15T05:08:05;8.95;;;1.88;;
33987;SDS011;37428;53.580;-1.666;2022-11-15T05:11:14;9.07;;;1.60;;
33987;SDS011;37428;53.580;-1.666;2022-11-15T05:14:18;10.77;;;2.17;;
33987;SDS011;37428;53.580;-1.666;2022-11-15T05:17:20;8.50;;;1.83;;
33987;SDS011;37428;53.580;-1.666;2022-11-15T05:20:24;7.88;;;1.55;;
33987;SDS011;37428;53.580;-1.666;2022-11-15T05:23:33;5.80;;;1.80;;
33987;SDS011;37428;53.580;-1.666;2022-11-15T05:26:37;5.63;;;2.25;;
33987;SDS011;37428;53.580;-1.666;2022-11-15T05:29:43;13.05;;;2.33;;
33987;SDS011;37428;53.580;-1.666;2022-11-15T05:32:46;7.57;;;2.40;;
33987;SDS011;37428;53.580;-1.666;2022-11-15T05:35:57;7.97;;;2.28;;
33987;SDS011;37428;53.580;-1.666;2022-11-15T05:39:07;8.13;;;3.30;;
33987;SDS011;37428;53.580;-1.666;2022-11-15T05:42:11;10.02;;;2.58;;
33987;SDS011;37428;53.580;-1.666;2022-11-15T05:45:15;11.63;;;2.90;;
33987;SDS011;37428;53.580;-1.666;2022-11-15T05:48:32;8.23;;;2.75;;
33987;SDS011;37428;53.580;-1.666;2022-11-15T05:51:37;8.50;;;2.60;;
33987;SDS011;37428;53.580;-1.666;2022-11-15T05:54:41;11.13;;;2.58;;
33987;SDS011;37428;53.580;-1.666;2022-11-15T05:57:48;8.80;;;2.92;;
33987;SDS011;37428;53.580;-1.666;2022-11-15T06:00:50;8.38;;;2.75;;
33987;SDS011;37428;53.580;-1.666;2022-11-15T06:04:25;6.80;;;2.58;;
33987;SDS011;37428;53.580;-1.666;2022-11-15T06:07:32;9.00;;;3.38;;
33987;SDS011;37428;53.580;-1.666;2022-11-15T06:10:39;9.60;;;3.38;;
33987;SDS011;37428;53.580;-1.666;2022-11-15T06:13:44;9.70;;;3.83;;
33987;SDS011;37428;53.580;-1.666;2022-11-15T06:16:49;8.65;;;3.53;;
33987;SDS011;37428;53.580;-1.666;2022-11-15T06:19:55;5.45;;;3.08;;
33987;SDS011;37428;53.580;-1.666;2022-11-15T06:22:58;5.15;;;3.50;;
33987;SDS011;37428;53.580;-1.666;2022-11-15T06:29:04;4.50;;;2.47;;
33987;SDS011;37428;53.580;-1.666;2022-11-15T06:32:06;8.63;;;2.85;;
33987;SDS011;37428;53.580;-1.666;2022-11-15T06:35:10;7.85;;;3.53;;
33987;SDS011;37428;53.580;-1.666;2022-11-15T06:38:18;7.18;;;2.97;;
33987;SDS011;37428;53.580;-1.666;2022-11-15T06:41:20;5.90;;;3.22;;
33987;SDS011;37428;53.580;-1.666;2022-11-15T06:44:28;4.03;;;3.63;;
33987;SDS011;37428;53.580;-1.666;2022-11-15T06:47:31;6.80;;;3.63;;
33987;SDS011;37428;53.580;-1.666;2022-11-15T06:50:49;10.18;;;4.80;;
33987;SDS011;37428;53.580;-1.666;2022-11-15T06:53:52;11.48;;;3.58;;
33987;SDS011;37428;53.580;-1.666;2022-11-15T06:56:54;9.77;;;5.00;;
33987;SDS011;37428;53.580;-1.666;2022-11-15T07:00:00;4.70;;;4.18;;
33987;SDS011;37428;53.580;-1.666;2022-11-15T07:03:03;12.55;;;5.40;;
33987;SDS011;37428;53.580;-1.666;2022-11-15T07:06:12;14.25;;;6.40;;
33987;SDS011;37428;53.580;-1.666;2022-11-15T07:09:14;9.73;;;5.95;;
33987;SDS011;37428;53.580;-1.666;2022-11-15T07:12:16;8.32;;;6.95;;
33987;SDS011;37428;53.580;-1.666;2022-11-15T07:15:21;7.10;;;6.25;;
33987;SDS011;37428;53.580;-1.666;2022-11-15T07:18:27;10.20;;;7.10;;
33987;SDS011;37428;53.580;-1.666;2022-11-15T07:21:32;10.68;;;7.43;;
33987;SDS011;37428;53.580;-1.666;2022-11-15T07:24:38;8.48;;;5.90;;
33987;SDS011;37428;53.580;-1.666;2022-11-15T07:27:41;8.77;;;6.68;;
33987;SDS011;37428;53.580;-1.666;2022-11-15T07:30:46;7.57;;;6.78;;
33987;SDS011;37428;53.580;-1.666;2022-11-15T07:33:48;6.18;;;4.70;;
33987;SDS011;37428;53.580;-1.666;2022-11-15T07:36:56;7.70;;;6.80;;
33987;SDS011;37428;53.580;-1.666;2022-11-15T07:39:58;8.50;;;6.65;;
33987;SDS011;37428;53.580;-1.666;2022-11-15T07:43:01;12.85;;;8.35;;
33987;SDS011;37428;53.580;-1.666;2022-11-15T07:46:07;12.90;;;9.65;;
33987;SDS011;37428;53.580;-1.666;2022-11-15T07:49:13;10.23;;;7.47;;
33987;SDS011;37428;53.580;-1.666;2022-11-15T07:52:17;5.88;;;5.18;;
33987;SDS011;37428;53.580;-1.666;2022-11-15T07:55:24;6.70;;;5.75;;
33987;SDS011;37428;53.580;-1.666;2022-11-15T07:58:27;6.43;;;5.82;;
33987;SDS011;37428;53.580;-1.666;2022-11-15T08:01:33;6.03;;;4.97;;
33987;SDS011;37428;53.580;-1.666;2022-11-15T08:04:41;7.20;;;6.13;;
33987;SDS011;37428;53.580;-1.666;2022-11-15T08:07:44;13.30;;;6.53;;
33987;SDS011;37428;53.580;-1.666;2022-11-15T08:10:46;7.47;;;6.13;;
33987;SDS011;37428;53.580;-1.666;2022-11-15T08:14:02;7.55;;;6.70;;
33987;SDS011;37428;53.580;-1.666;2022-11-15T08:17:15;7.65;;;6.90;;
33987;SDS011;37428;53.580;-1.666;2022-11-15T08:20:19;11.77;;;6.38;;
33987;SDS011;37428;53.580;-1.666;2022-11-15T08:23:21;9.68;;;7.60;;
33987;SDS011;37428;53.580;-1.666;2022-11-15T08:26:27;14.40;;;11.30;;
33987;SDS011;37428;53.580;-1.666;2022-11-15T08:29:36;11.23;;;9.65;;
33987;SDS011;37428;53.580;-1.666;2022-11-15T08:32:43;8.82;;;7.53;;
33987;SDS011;37428;53.580;-1.666;2022-11-15T08:35:47;11.07;;;8.55;;
33987;SDS011;37428;53.580;-1.666;2022-11-15T08:38:50;9.07;;;8.18;;
33987;SDS011;37428;53.580;-1.666;2022-11-15T08:41:56;9.55;;;8.65;;
33987;SDS011;37428;53.580;-1.666;2022-11-15T08:44:59;9.73;;;8.27;;
33987;SDS011;37428;53.580;-1.666;2022-11-15T08:48:02;8.82;;;7.70;;
33987;SDS011;37428;53.580;-1.666;2022-11-15T08:51:06;13.57;;;10.43;;
33987;SDS011;37428;53.580;-1.666;2022-11-15T08:54:08;8.50;;;7.57;;
33987;SDS011;37428;53.580;-1.666;2022-11-15T08:57:11;8.70;;;7.90;;
33987;SDS011;37428;53.580;-1.666;2022-11-15T09:00:13;8.50;;;6.28;;
33987;SDS011;37428;53.580;-1.666;2022-11-15T09:03:21;6.45;;;5.43;;
33987;SDS011;37428;53.580;-1.666;2022-11-15T09:06:23;6.85;;;5.57;;
33987;SDS011;37428;53.580;-1.666;2022-11-15T09:09:25;5.05;;;4.65;;
33987;SDS011;37428;53.580;-1.666;2022-11-15T09:12:32;5.53;;;2.38;;
33987;SDS011;37428;53.580;-1.666;2022-11-15T09:15:35;4.45;;;3.17;;
33987;SDS011;37428;53.580;-1.666;2022-11-15T09:18:42;4.78;;;4.45;;
33987;SDS011;37428;53.580;-1.666;2022-11-15T09:21:51;4.68;;;4.28;;
33987;SDS011;37428;53.580;-1.666;2022-11-15T09:25:03;3.97;;;3.65;;
33987;SDS011;37428;53.580;-1.666;2022-11-15T09:28:08;5.55;;;4.85;;
33987;SDS011;37428;53.580;-1.666;2022-11-15T09:31:13;3.60;;;3.30;;
33987;SDS011;37428;53.580;-1.666;2022-11-15T09:34:16;4.68;;;3.85;;
33987;SDS011;37428;53.580;-1.666;2022-11-15T09:37:19;3.58;;;3.28;;
33987;SDS011;37428;53.580;-1.666;2022-11-15T09:40:21;3.75;;;3.40;;
33987;SDS011;37428;53.580;-1.666;2022-11-15T09:43:29;4.72;;;3.10;;
33987;SDS011;37428;53.580;-1.666;2022-11-15T09:46:42;4.60;;;3.72;;
33987;SDS011;37428;53.580;-1.666;2022-11-15T09:49:53;4.00;;;3.70;;
33987;SDS011;37428;53.580;-1.666;2022-11-15T09:53:13;3.92;;;3.30;;
33987;SDS011;37428;53.580;-1.666;2022-11-15T09:56:26;3.00;;;2.75;;
33987;SDS011;37428;53.580;-1.666;2022-11-15T09:59:38;3.67;;;2.63;;
33987;SDS011;37428;53.580;-1.666;2022-11-15T10:03:00;4.88;;;3.25;;
33987;SDS011;37428;53.580;-1.666;2022-11-15T10:06:19;3.50;;;3.17;;
33987;SDS011;37428;53.580;-1.666;2022-11-15T10:09:42;3.15;;;2.92;;
33987;SDS011;37428;53.580;-1.666;2022-11-15T10:12:49;3.03;;;2.75;;
33987;SDS011;37428;53.580;-1.666;2022-11-15T10:15:54;4.70;;;3.95;;
33987;SDS011;37428;53.580;-1.666;2022-11-15T10:19:04;8.02;;;3.78;;
33987;SDS011;37428;53.580;-1.666;2022-11-15T10:25:38;5.25;;;3.03;;
33987;SDS011;37428;53.580;-1.666;2022-11-15T10:28:40;4.03;;;2.60;;
33987;SDS011;37428;53.580;-1.666;2022-11-15T10:32:00;4.70;;;4.03;;
33987;SDS011;37428;53.580;-1.666;2022-11-15T10:35:24;3.42;;;3.10;;
33987;SDS011;37428;53.580;-1.666;2022-11-15T10:38:35;7.45;;;5.80;;
33987;SDS011;37428;53.580;-1.666;2022-11-15T10:42:15;7.53;;;5.95;;
33987;SDS011;37428;53.580;-1.666;2022-11-15T10:45:24;16.90;;;11.35;;
33987;SDS011;37428;53.580;-1.666;2022-11-15T10:48:28;10.32;;;7.65;;
33987;SDS011;37428;53.580;-1.666;2022-11-15T10:51:30;17.75;;;11.27;;
33987;SDS011;37428;53.580;-1.666;2022-11-15T10:54:46;17.38;;;10.48;;
33987;SDS011;37428;53.580;-1.666;2022-11-15T10:57:53;8.60;;;5.97;;
33987;SDS011;37428;53.580;-1.666;2022-11-15T11:00:57;9.35;;;5.93;;
33987;SDS011;37428;53.580;-1.666;2022-11-15T11:04:19;11.30;;;6.65;;
33987;SDS011;37428;53.580;-1.666;2022-11-15T11:07:24;32.95;;;18.50;;
33987;SDS011;37428;53.580;-1.666;2022-11-15T11:10:38;29.42;;;14.63;;
33987;SDS011;37428;53.580;-1.666;2022-11-15T11:13:59;14.38;;;8.93;;
33987;SDS011;37428;53.580;-1.666;2022-11-15T11:17:16;11.52;;;6.85;;
33987;SDS011;37428;53.580;-1.666;2022-11-15T11:20:32;5.70;;;3.90;;
33987;SDS011;37428;53.580;-1.666;2022-11-15T11:27:00;12.55;;;9.32;;
33987;SDS011;37428;53.580;-1.666;2022-11-15T11:30:21;14.48;;;10.90;;
33987;SDS011;37428;53.580;-1.666;2022-11-15T11:33:37;11.77;;;8.02;;
33987;SDS011;37428;53.580;-1.666;2022-11-15T11:36:48;6.60;;;5.82;;
33987;SDS011;37428;53.580;-1.666;2022-11-15T11:40:19;8.70;;;4.95;;
33987;SDS011;37428;53.580;-1.666;2022-11-15T11:43:34;7.20;;;6.45;;
33987;SDS011;37428;53.580;-1.666;2022-11-15T11:46:47;3.83;;;3.50;;
33987;SDS011;37428;53.580;-1.666;2022-11-15T11:50:13;3.60;;;3.25;;
33987;SDS011;37428;53.580;-1.666;2022-11-15T11:53:21;5.90;;;3.17;;
33987;SDS011;37428;53.580;-1.666;2022-11-15T11:56:31;2.10;;;1.90;;
33987;SDS011;37428;53.580;-1.666;2022-11-15T11:59:52;4.95;;;2.22;;
33987;SDS011;37428;53.580;-1.666;2022-11-15T12:03:21;2.25;;;1.55;;
33987;SDS011;37428;53.580;-1.666;2022-11-15T12:06:34;3.30;;;2.42;;
33987;SDS011;37428;53.580;-1.666;2022-11-15T12:09:43;3.08;;;1.60;;
33987;SDS011;37428;53.580;-1.666;2022-11-15T12:13:02;3.15;;;1.73;;
33987;SDS011;37428;53.580;-1.666;2022-11-15T12:16:14;2.05;;;1.23;;
33987;SDS011;37428;53.580;-1.666;2022-11-15T12:19:24;1.70;;;1.20;;
33987;SDS011;37428;53.580;-1.666;2022-11-15T12:22:42;1.30;;;1.20;;
33987;SDS011;37428;53.580;-1.666;2022-11-15T12:26:11;1.83;;;1.10;;
33987;SDS011;37428;53.580;-1.666;2022-11-15T12:29:25;2.55;;;1.60;;
33987;SDS011;37428;53.580;-1.666;2022-11-15T12:35:59;2.47;;;1.60;;
33987;SDS011;37428;53.580;-1.666;2022-11-15T12:39:04;1.50;;;1.40;;
33987;SDS011;37428;53.580;-1.666;2022-11-15T12:45:40;2.15;;;2.00;;
33987;SDS011;37428;53.580;-1.666;2022-11-15T12:49:23;1.33;;;1.23;;
33987;SDS011;37428;53.580;-1.666;2022-11-15T12:56:24;2.33;;;1.42;;
33987;SDS011;37428;53.580;-1.666;2022-11-15T13:03:31;2.33;;;1.88;;
33987;SDS011;37428;53.580;-1.666;2022-11-15T13:09:59;2.70;;;1.30;;
33987;SDS011;37428;53.580;-1.666;2022-11-15T13:13:12;1.40;;;0.90;;
33987;SDS011;37428;53.580;-1.666;2022-11-15T13:17:17;0.80;;;0.80;;
33987;SDS011;37428;53.580;-1.666;2022-11-15T13:20:36;1.90;;;0.77;;
33987;SDS011;37428;53.580;-1.666;2022-11-15T13:23:41;1.27;;;1.17;;
33987;SDS011;37428;53.580;-1.666;2022-11-15T13:26:43;2.10;;;2.00;;
33987;SDS011;37428;53.580;-1.666;2022-11-15T13:29:48;6.18;;;5.68;;
33987;SDS011;37428;53.580;-1.666;2022-11-15T13:36:40;4.63;;;4.22;;
33987;SDS011;37428;53.580;-1.666;2022-11-15T13:39:49;0.60;;;0.60;;
33987;SDS011;37428;53.580;-1.666;2022-11-15T13:42:53;1.85;;;0.80;;
33987;SDS011;37428;53.580;-1.666;2022-11-15T13:46:09;0.60;;;0.60;;
33987;SDS011;37428;53.580;-1.666;2022-11-15T13:49:16;2.15;;;1.70;;
33987;SDS011;37428;53.580;-1.666;2022-11-15T13:52:18;15.05;;;13.32;;
33987;SDS011;37428;53.580;-1.666;2022-11-15T13:55:24;9.27;;;7.55;;
33987;SDS011;37428;53.580;-1.666;2022-11-15T13:58:28;2.90;;;2.70;;
33987;SDS011;37428;53.580;-1.666;2022-11-15T14:01:50;3.00;;;2.50;;
33987;SDS011;37428;53.580;-1.666;2022-11-15T14:05:19;3.83;;;3.42;;
33987;SDS011;37428;53.580;-1.666;2022-11-15T14:08:24;4.60;;;4.20;;
33987;SDS011;37428;53.580;-1.666;2022-11-15T14:11:32;4.32;;;3.17;;
33987;SDS011;37428;53.580;-1.666;2022-11-15T14:14:43;2.28;;;2.08;;
33987;SDS011;37428;53.580;-1.666;2022-11-15T14:17:52;2.42;;;2.22;;
33987;SDS011;37428;53.580;-1.666;2022-11-15T14:21:20;0.73;;;0.60;;
33987;SDS011;37428;53.580;-1.666;2022-11-15T14:24:24;3.33;;;3.03;;
33987;SDS011;37428;53.580;-1.666;2022-11-15T14:29:08;4.65;;;4.35;;
33987;SDS011;37428;53.580;-1.666;2022-11-15T14:31:43;0.70;;;0.65;;
33987;SDS011;37428;53.580;-1.666;2022-11-15T14:35:54;3.47;;;2.33;;
33987;SDS011;37428;53.580;-1.666;2022-11-15T14:39:16;2.33;;;1.20;;
33987;SDS011;37428;53.580;-1.666;2022-11-15T14:42:48;3.33;;;2.22;;
33987;SDS011;37428;53.580;-1.666;2022-11-15T14:46:02;1.33;;;1.23;;
33987;SDS011;37428;53.580;-1.666;2022-11-15T14:52:34;1.80;;;1.60;;
33987;SDS011;37428;53.580;-1.666;2022-11-15T14:55:48;1.35;;;0.40;;
33987;SDS011;37428;53.580;-1.666;2022-11-15T14:58:54;0.30;;;0.30;;
33987;SDS011;37428;53.580;-1.666;2022-11-15T15:01:56;2.60;;;1.25;;
33987;SDS011;37428;53.580;-1.666;2022-11-15T15:05:11;2.65;;;0.70;;
33987;SDS011;37428;53.580;-1.666;2022-11-15T15:08:33;1.35;;;1.00;;
33987;SDS011;37428;53.580;-1.666;2022-11-15T15:11:40;2.63;;;0.75;;
33987;SDS011;37428;53.580;-1.666;2022-11-15T15:15:32;1.98;;;0.80;;
33987;SDS011;37428;53.580;-1.666;2022-11-15T15:18:36;1.23;;;1.10;;
33987;SDS011;37428;53.580;-1.666;2022-11-15T15:21:49;1.50;;;1.00;;
33987;SDS011;37428;53.580;-1.666;2022-11-15T15:25:00;1.50;;;0.80;;
33987;SDS011;37428;53.580;-1.666;2022-11-15T15:28:11;0.80;;;0.60;;
33987;SDS011;37428;53.580;-1.666;2022-11-15T15:31:21;6.47;;;1.60;;
33987;SDS011;37428;53.580;-1.666;2022-11-15T15:35:10;4.30;;;1.02;;
33987;SDS011;37428;53.580;-1.666;2022-11-15T15:38:16;5.18;;;1.63;;
33987;SDS011;37428;53.580;-1.666;2022-11-15T15:41:28;4.88;;;1.30;;
33987;SDS011;37428;53.580;-1.666;2022-11-15T15:44:33;6.93;;;1.67;;
33987;SDS011;37428;53.580;-1.666;2022-11-15T15:47:37;8.40;;;2.17;;
33987;SDS011;37428;53.580;-1.666;2022-11-15T15:51:03;11.95;;;1.65;;
33987;SDS011;37428;53.580;-1.666;2022-11-15T15:54:25;10.38;;;2.08;;
33987;SDS011;37428;53.580;-1.666;2022-11-15T15:57:41;7.43;;;1.65;;
33987;SDS011;37428;53.580;-1.666;2022-11-15T16:00:50;10.73;;;2.15;;
33987;SDS011;37428;53.580;-1.666;2022-11-15T16:03:58;4.05;;;1.27;;
33987;SDS011;37428;53.580;-1.666;2022-11-15T16:07:07;5.82;;;1.88;;
33987;SDS011;37428;53.580;-1.666;2022-11-15T16:10:20;5.07;;;1.38;;
33987;SDS011;37428;53.580;-1.666;2022-11-15T16:13:26;6.00;;;1.42;;
33987;SDS011;37428;53.580;-1.666;2022-11-15T16:16:37;2.35;;;1.25;;
33987;SDS011;37428;53.580;-1.666;2022-11-15T16:19:48;5.50;;;1.60;;
33987;SDS011;37428;53.580;-1.666;2022-11-15T16:22:51;5.53;;;1.67;;
33987;SDS011;37428;53.580;-1.666;2022-11-15T16:26:09;7.95;;;1.75;;
33987;SDS011;37428;53.580;-1.666;2022-11-15T16:29:29;5.60;;;2.33;;
33987;SDS011;37428;53.580;-1.666;2022-11-15T16:32:33;6.68;;;2.75;;
33987;SDS011;37428;53.580;-1.666;2022-11-15T16:35:40;9.10;;;1.55;;
33987;SDS011;37428;53.580;-1.666;2022-11-15T16:38:52;5.07;;;1.88;;
33987;SDS011;37428;53.580;-1.666;2022-11-15T16:41:54;7.97;;;2.20;;
33987;SDS011;37428;53.580;-1.666;2022-11-15T16:45:04;7.95;;;2.08;;
33987;SDS011;37428;53.580;-1.666;2022-11-15T16:48:19;11.98;;;2.88;;
33987;SDS011;37428;53.580;-1.666;2022-11-15T16:51:26;5.97;;;2.10;;
33987;SDS011;37428;53.580;-1.666;2022-11-15T16:54:34;7.43;;;2.80;;
33987;SDS011;37428;53.580;-1.666;2022-11-15T16:57:38;10.40;;;3.05;;
33987;SDS011;37428;53.580;-1.666;2022-11-15T17:00:43;8.73;;;2.50;;
33987;SDS011;37428;53.580;-1.666;2022-11-15T17:03:57;14.38;;;3.83;;
33987;SDS011;37428;53.580;-1.666;2022-11-15T17:07:11;10.40;;;2.35;;
33987;SDS011;37428;53.580;-1.666;2022-11-15T17:11:49;8.65;;;2.13;;
33987;SDS011;37428;53.580;-1.666;2022-11-15T17:13:54;12.57;;;2.25;;
33987;SDS011;37428;53.580;-1.666;2022-11-15T17:17:07;17.10;;;2.63;;
33987;SDS011;37428;53.580;-1.666;2022-11-15T17:20:27;12.40;;;2.95;;
33987;SDS011;37428;53.580;-1.666;2022-11-15T17:23:46;14.35;;;3.88;;
33987;SDS011;37428;53.580;-1.666;2022-11-15T17:26:52;17.90;;;2.60;;
33987;SDS011;37428;53.580;-1.666;2022-11-15T17:29:55;23.88;;;4.45;;
33987;SDS011;37428;53.580;-1.666;2022-11-15T17:32:57;13.25;;;3.15;;
33987;SDS011;37428;53.580;-1.666;2022-11-15T17:36:04;10.00;;;4.45;;
33987;SDS011;37428;53.580;-1.666;2022-11-15T17:39:08;14.95;;;4.50;;
33987;SDS011;37428;53.580;-1.666;2022-11-15T17:42:23;13.70;;;3.65;;
33987;SDS011;37428;53.580;-1.666;2022-11-15T17:45:56;19.50;;;5.43;;
33987;SDS011;37428;53.580;-1.666;2022-11-15T17:48:59;26.27;;;9.63;;
33987;SDS011;37428;53.580;-1.666;2022-11-15T17:52:07;20.27;;;6.93;;
33987;SDS011;37428;53.580;-1.666;2022-11-15T17:55:10;18.70;;;7.22;;
33987;SDS011;37428;53.580;-1.666;2022-11-15T17:58:14;22.17;;;6.65;;
33987;SDS011;37428;53.580;-1.666;2022-11-15T18:01:18;14.90;;;6.90;;
33987;SDS011;37428;53.580;-1.666;2022-11-15T18:04:24;22.88;;;9.25;;
33987;SDS011;37428;53.580;-1.666;2022-11-15T18:07:29;16.33;;;7.63;;
33987;SDS011;37428;53.580;-1.666;2022-11-15T18:10:31;17.10;;;4.60;;
33987;SDS011;37428;53.580;-1.666;2022-11-15T18:13:33;14.98;;;6.47;;
33987;SDS011;37428;53.580;-1.666;2022-11-15T18:16:37;23.33;;;8.80;;
33987;SDS011;37428;53.580;-1.666;2022-11-15T18:19:40;20.25;;;6.68;;
33987;SDS011;37428;53.580;-1.666;2022-11-15T18:22:48;14.30;;;6.07;;
33987;SDS011;37428;53.580;-1.666;2022-11-15T18:25:53;16.30;;;5.93;;
33987;SDS011;37428;53.580;-1.666;2022-11-15T18:29:01;22.25;;;6.82;;
33987;SDS011;37428;53.580;-1.666;2022-11-15T18:32:05;18.58;;;6.03;;
33987;SDS011;37428;53.580;-1.666;2022-11-15T18:35:13;16.50;;;6.25;;
33987;SDS011;37428;53.580;-1.666;2022-11-15T18:38:16;13.77;;;6.00;;
33987;SDS011;37428;53.580;-1.666;2022-11-15T18:41:19;16.40;;;7.35;;
33987;SDS011;37428;53.580;-1.666;2022-11-15T18:44:26;15.55;;;6.22;;
33987;SDS011;37428;53.580;-1.666;2022-11-15T18:47:29;16.13;;;8.57;;
33987;SDS011;37428;53.580;-1.666;2022-11-15T18:50:31;17.88;;;7.63;;
33987;SDS011;37428;53.580;-1.666;2022-11-15T18:53:45;15.43;;;7.05;;
33987;SDS011;37428;53.580;-1.666;2022-11-15T18:56:49;14.32;;;4.85;;
33987;SDS011;37428;53.580;-1.666;2022-11-15T18:59:53;18.60;;;6.47;;
33987;SDS011;37428;53.580;-1.666;2022-11-15T19:02:55;13.98;;;5.75;;
33987;SDS011;37428;53.580;-1.666;2022-11-15T19:06:04;14.93;;;4.40;;
33987;SDS011;37428;53.580;-1.666;2022-11-15T19:09:11;15.38;;;4.63;;
33987;SDS011;37428;53.580;-1.666;2022-11-15T19:12:17;13.32;;;3.88;;
33987;SDS011;37428;53.580;-1.666;2022-11-15T19:15:19;20.67;;;4.35;;
33987;SDS011;37428;53.580;-1.666;2022-11-15T19:18:21;11.27;;;4.07;;
33987;SDS011;37428;53.580;-1.666;2022-11-15T19:21:24;11.23;;;3.45;;
33987;SDS011;37428;53.580;-1.666;2022-11-15T19:24:29;14.55;;;3.92;;
33987;SDS011;37428;53.580;-1.666;2022-11-15T19:27:46;17.70;;;5.25;;